Airport details for: LICD (Malta)

Metar

LICD 261850Z 10012KT CAVOK 17/16 Q1015

General details

ICAO: LICD
IATA: LMP
Name (city): Lampedusa
Major:
Country: Malta
vACC: vACC Italy
Description:

Lampedusa Airport is an airport on Lampedusa island, Province of Agrigento, Sicily. The airport enjoys peak aircraft movements during the European summer as the island receives several scheduled services from airlines in Europe.

Scenery links:
FS9 scenery:
FSX/P3D scenery:
XP scenery:
Elevation: 66 ft.
Transition altitude: 3000 ft.
MSA: 5800 ft.
Latitude: 35.498056
Longitude: 12.618333
LICD Charts
LICD Notams
LICD Online stations

Runways

Number Course Length Elevation Lat Lon ILS ILS freq ILS FAC GP
08 79° 5889ft / 1795 m 44ft 35.49665 12.608314 - - 3.0°
26 259° 5889ft / 1795 m 66ft 35.499283 12.627831 111.3 259° 0.0°